createdAt,value
2022-08-28T00:01:19.878Z,38.8
2022-08-28T00:02:26.379Z,38.6
2022-08-28T00:03:32.914Z,38.8
2022-08-28T00:04:39.446Z,38.8
2022-08-28T00:05:45.981Z,38.8
2022-08-28T00:06:52.515Z,38.4
2022-08-28T00:07:59.055Z,38.2
2022-08-28T00:09:05.591Z,38.2
2022-08-28T00:10:12.126Z,37.8
2022-08-28T00:11:18.661Z,37.6
2022-08-28T00:12:25.200Z,37.6
2022-08-28T00:13:31.740Z,37.2
2022-08-28T00:14:38.281Z,36.8
2022-08-28T00:15:44.817Z,37.2
2022-08-28T00:16:51.367Z,37.4
2022-08-28T00:17:57.890Z,37.6
2022-08-28T00:19:04.537Z,37.6
2022-08-28T00:20:10.955Z,37.6
2022-08-28T00:21:17.496Z,37.6
2022-08-28T00:22:24.034Z,37.6
2022-08-28T00:23:30.571Z,37.4
2022-08-28T00:24:37.103Z,37.6
2022-08-28T00:25:43.641Z,37.8
2022-08-28T00:26:50.175Z,37.4
2022-08-28T00:27:56.716Z,37.8
2022-08-28T00:29:03.492Z,37.8
2022-08-28T00:30:10.272Z,37.8
2022-08-28T00:31:17.051Z,38
2022-08-28T00:32:23.827Z,38
2022-08-28T00:33:30.617Z,38.2
2022-08-28T00:34:37.398Z,38
2022-08-28T00:35:44.170Z,38.4
2022-08-28T00:36:50.951Z,38.4
2022-08-28T00:37:57.730Z,38.6
2022-08-28T00:39:04.515Z,38.6
2022-08-28T00:40:11.292Z,38.6
2022-08-28T00:41:18.067Z,39.4
2022-08-28T00:42:24.848Z,40
2022-08-28T00:43:32.138Z,40.2
2022-08-28T00:45:10.880Z,40.4
2022-08-28T00:46:49.639Z,40.6
2022-08-28T00:48:28.387Z,41.2
2022-08-28T00:50:07.084Z,41.6
2022-08-28T00:51:45.846Z,42.2
2022-08-28T00:53:24.615Z,43
2022-08-28T00:55:03.339Z,43
2022-08-28T00:56:42.089Z,43.4
2022-08-28T00:58:20.837Z,43.2
2022-08-28T00:59:59.577Z,42.8
2022-08-28T01:01:38.333Z,42.8
2022-08-28T01:03:17.080Z,43.2
2022-08-28T01:07:25.131Z,43.6
2022-08-28T01:08:31.569Z,44.8
2022-08-28T01:10:40.721Z,45.2
2022-08-28T01:11:47.131Z,46.6
2022-08-28T01:12:53.541Z,47
2022-08-28T01:13:59.967Z,48.4
2022-08-28T01:15:06.379Z,49.2
2022-08-28T01:16:12.798Z,50
2022-08-28T01:17:19.219Z,50.6
2022-08-28T01:18:25.627Z,51
2022-08-28T01:19:32.031Z,51.2
2022-08-28T01:20:38.461Z,51.6
2022-08-28T01:21:44.863Z,52
2022-08-28T01:22:51.275Z,52.8
2022-08-28T01:23:57.698Z,53.4
2022-08-28T01:25:04.128Z,53.6
2022-08-28T01:26:10.532Z,53.2
2022-08-28T01:27:16.945Z,53
2022-08-28T01:28:23.349Z,53.2
2022-08-28T01:29:29.761Z,53.4
2022-08-28T01:30:36.176Z,53.8
2022-08-28T01:31:42.588Z,53.8
2022-08-28T01:32:49.007Z,54.2
2022-08-28T01:33:55.416Z,55.2
2022-08-28T01:35:01.829Z,56.2
2022-08-28T01:36:08.246Z,57.2
2022-08-28T01:37:14.784Z,58
2022-08-28T01:38:21.309Z,58.8
2022-08-28T01:39:27.833Z,60.2
2022-08-28T01:40:34.352Z,61.4
2022-08-28T01:41:40.895Z,62
2022-08-28T01:42:47.429Z,62.8
2022-08-28T01:43:53.975Z,64.4
2022-08-28T01:45:00.508Z,65.8
2022-08-28T01:46:07.045Z,67.2
2022-08-28T01:47:13.587Z,68.6
2022-08-28T01:48:20.135Z,70.2
2022-08-28T01:49:26.668Z,71.2
2022-08-28T01:50:33.206Z,71.8
2022-08-28T01:52:05.668Z,72.2
2022-08-28T01:53:12.424Z,72.6
2022-08-28T01:54:19.246Z,72.4
2022-08-28T01:55:26.059Z,71.4
2022-08-28T01:56:32.842Z,70.4
2022-08-28T01:57:39.614Z,69.4
2022-08-28T01:58:46.403Z,69.2
2022-08-28T01:59:53.181Z,68.2
2022-08-28T02:00:59.963Z,68
2022-08-28T02:02:06.753Z,67.2
2022-08-28T02:03:13.535Z,66
2022-08-28T02:04:20.307Z,66.6
2022-08-28T02:05:27.093Z,66.6
2022-08-28T02:08:45.252Z,67.2
2022-08-28T02:10:23.995Z,69.6
2022-08-28T02:12:02.767Z,72.4
2022-08-28T02:13:10.004Z,75.2
2022-08-28T02:14:17.260Z,76.1
2022-08-28T02:15:56.009Z,77.3
2022-08-28T02:17:34.758Z,79.9
2022-08-28T02:19:13.500Z,80.1
2022-08-28T02:20:52.251Z,81.3
2022-08-28T02:22:30.975Z,82.7
2022-08-28T02:24:09.680Z,83.7
2022-08-28T02:25:48.396Z,83.1
2022-08-28T02:27:27.149Z,82.9
2022-08-28T02:29:38.021Z,83.7
2022-08-28T02:31:35.177Z,84.7
2022-08-28T02:34:50.737Z,85.1
2022-08-28T02:35:57.163Z,87.3
2022-08-28T02:37:03.579Z,88.5
2022-08-28T02:38:09.988Z,89.5
2022-08-28T02:39:16.395Z,89.3
2022-08-28T02:40:22.803Z,90.1
2022-08-28T02:41:29.223Z,89.9
2022-08-28T02:42:35.628Z,89.1
2022-08-28T02:43:42.038Z,89.1
2022-08-28T02:44:48.451Z,89.9
2022-08-28T02:45:54.861Z,90.7
2022-08-28T02:47:01.267Z,90.7
2022-08-28T02:48:07.678Z,91.7
2022-08-28T02:49:14.086Z,91.9
2022-08-28T02:50:20.499Z,92.3
2022-08-28T02:51:26.912Z,92.3
2022-08-28T02:52:33.335Z,92.7
2022-08-28T02:53:39.753Z,93.1
2022-08-28T02:54:46.173Z,93.5
2022-08-28T02:55:52.596Z,92.9
2022-08-28T02:56:59.014Z,93.3
2022-08-28T02:58:05.444Z,94.1
2022-08-28T02:59:11.862Z,94.5
2022-08-28T03:00:18.282Z,97.1
2022-08-28T03:01:24.700Z,99.4
2022-08-28T03:02:31.242Z,101.8
2022-08-28T03:03:37.722Z,103.6
2022-08-28T03:04:44.203Z,104
2022-08-28T03:05:50.689Z,105.5
2022-08-28T03:06:57.179Z,105.5
2022-08-28T03:08:03.673Z,104.1
2022-08-28T03:09:10.157Z,104.2
2022-08-28T03:10:16.641Z,104.9
2022-08-28T03:11:23.117Z,104.9
2022-08-28T03:12:29.615Z,105.1
2022-08-28T03:13:36.091Z,105.5
2022-08-28T03:14:42.571Z,105.9
2022-08-28T03:15:49.058Z,105.1
2022-08-28T03:17:38.363Z,105.7
2022-08-28T03:18:45.070Z,106.6
2022-08-28T03:19:51.801Z,106.4
2022-08-28T03:20:58.526Z,107.5
2022-08-28T03:22:05.254Z,108.8
2022-08-28T03:23:11.987Z,109.5
2022-08-28T03:24:18.715Z,109.9
2022-08-28T03:25:25.444Z,110.8
2022-08-28T03:26:32.183Z,110.8
2022-08-28T03:27:38.915Z,110.3
2022-08-28T03:28:45.651Z,111.7
2022-08-28T03:29:52.385Z,111.8
2022-08-28T03:30:59.118Z,109.7
2022-08-28T03:34:17.276Z,109.2
2022-08-28T03:35:56.004Z,106
2022-08-28T03:37:03.215Z,105.3
2022-08-28T03:38:10.425Z,105.5
2022-08-28T03:39:49.145Z,105.8
2022-08-28T03:41:27.866Z,105.4
2022-08-28T03:43:06.595Z,105.7
2022-08-28T03:44:45.315Z,106.7
2022-08-28T03:46:24.049Z,106.2
2022-08-28T03:48:02.771Z,105.9
2022-08-28T03:49:41.486Z,106.8
2022-08-28T03:51:20.208Z,108.1
2022-08-28T03:52:58.936Z,110.2
2022-08-28T03:54:38.686Z,113.1
2022-08-28T03:57:56.099Z,116.7
2022-08-28T04:01:13.550Z,124.4
2022-08-28T04:04:30.952Z,130.8
2022-08-28T04:07:46.510Z,129.4
2022-08-28T04:08:52.870Z,136
2022-08-28T04:09:59.229Z,138
2022-08-28T04:11:05.585Z,137.6
2022-08-28T04:12:11.952Z,138.8
2022-08-28T04:13:18.313Z,138.4
2022-08-28T04:14:24.680Z,137.6
2022-08-28T04:15:31.047Z,138.8
2022-08-28T04:16:37.405Z,141.2
2022-08-28T04:17:43.771Z,142
2022-08-28T04:18:50.124Z,144
2022-08-28T04:19:56.496Z,146.4
2022-08-28T04:21:02.849Z,149.2
2022-08-28T04:22:09.218Z,153
2022-08-28T04:24:21.969Z,155
2022-08-28T04:25:28.367Z,155.6
2022-08-28T04:26:34.748Z,156.8
2022-08-28T04:27:41.143Z,153.8
2022-08-28T04:28:47.521Z,154.2
2022-08-28T04:29:53.910Z,153.4
2022-08-28T04:31:00.306Z,152.6
2022-08-28T04:32:06.706Z,152.6
2022-08-28T04:33:13.105Z,152.4
2022-08-28T04:34:19.511Z,151.6
2022-08-28T04:35:26.045Z,151
2022-08-28T04:36:32.569Z,153.6
2022-08-28T04:37:39.088Z,152.4
2022-08-28T04:38:45.620Z,155
2022-08-28T04:39:52.124Z,157.2
2022-08-28T04:40:58.641Z,158.8
2022-08-28T04:42:05.163Z,163
2022-08-28T04:43:11.686Z,162.8
2022-08-28T04:44:18.218Z,163.2
2022-08-28T04:45:24.759Z,166
2022-08-28T04:46:31.265Z,166.4
2022-08-28T04:47:37.780Z,165.8
2022-08-28T04:48:44.296Z,166.4
2022-08-28T04:50:33.614Z,166.4
2022-08-28T04:51:40.359Z,167.9
2022-08-28T04:52:47.102Z,168.9
2022-08-28T04:53:53.848Z,168.9
2022-08-28T04:55:00.606Z,169.1
2022-08-28T04:56:07.362Z,167.2
2022-08-28T04:57:14.144Z,165.2
2022-08-28T04:58:20.869Z,165.4
2022-08-28T04:59:27.636Z,167.6
2022-08-28T05:00:34.392Z,168.2
2022-08-28T05:01:41.145Z,164.8
2022-08-28T05:02:47.927Z,165
2022-08-28T05:03:54.690Z,165.8
2022-08-28T05:07:12.819Z,165.4
2022-08-28T05:08:51.522Z,157
2022-08-28T05:09:58.780Z,155.8
2022-08-28T05:11:06.037Z,156.4
2022-08-28T05:12:44.750Z,154.2
2022-08-28T05:14:23.472Z,149.4
2022-08-28T05:16:02.197Z,144.2
2022-08-28T05:17:40.929Z,140.8
2022-08-28T05:19:19.663Z,140.6
2022-08-28T05:20:58.394Z,140
2022-08-28T05:22:37.099Z,135.2
2022-08-28T05:24:15.816Z,134.2
2022-08-28T05:25:54.540Z,133.8
2022-08-28T05:27:34.272Z,132.8
2022-08-28T05:30:51.694Z,129.2
2022-08-28T05:34:07.276Z,123.9
2022-08-28T05:35:13.692Z,121.3
2022-08-28T05:36:20.106Z,120.5
2022-08-28T05:37:26.509Z,120.5
2022-08-28T05:38:32.903Z,119.1
2022-08-28T05:39:39.321Z,119.3
2022-08-28T05:40:45.727Z,120.7
2022-08-28T05:41:52.145Z,121.1
2022-08-28T05:42:58.552Z,120.3
2022-08-28T05:44:04.975Z,118.3
2022-08-28T05:45:11.370Z,116.4
2022-08-28T05:46:17.769Z,115.9
2022-08-28T05:47:24.167Z,113.8
2022-08-28T05:48:30.569Z,112.6
2022-08-28T05:49:36.984Z,111.9
2022-08-28T05:50:43.394Z,110.4
2022-08-28T05:51:49.795Z,110.2
2022-08-28T05:52:56.197Z,109.2
2022-08-28T05:54:02.611Z,109.2
2022-08-28T05:55:09.074Z,108.2
2022-08-28T05:56:15.523Z,108
2022-08-28T05:57:21.920Z,106.4
2022-08-28T05:58:28.332Z,105.6
2022-08-28T05:59:34.731Z,103
2022-08-28T06:00:41.132Z,101
2022-08-28T06:01:47.686Z,98.3
2022-08-28T06:02:54.214Z,95.7
2022-08-28T06:04:00.752Z,93.5
2022-08-28T06:05:07.253Z,90.9
2022-08-28T06:06:13.751Z,89.5
2022-08-28T06:07:20.264Z,88.9
2022-08-28T06:08:26.776Z,86.9
2022-08-28T06:09:33.294Z,85.5
2022-08-28T06:10:39.818Z,84.1
2022-08-28T06:11:46.337Z,83.3
2022-08-28T06:12:52.862Z,83.1
2022-08-28T06:13:59.372Z,81.7
2022-08-28T06:15:05.901Z,81.5
2022-08-28T06:16:55.237Z,80.9
2022-08-28T06:18:01.995Z,79.9
2022-08-28T06:19:08.748Z,78.7
2022-08-28T06:20:15.506Z,76.9
2022-08-28T06:21:22.263Z,75.2
2022-08-28T06:22:29.025Z,74.5
2022-08-28T06:23:35.779Z,73.6
2022-08-28T06:24:42.553Z,71.8
2022-08-28T06:25:49.299Z,70.2
2022-08-28T06:26:56.076Z,69.2
2022-08-28T06:28:02.828Z,68.8
2022-08-28T06:29:09.593Z,66.6
2022-08-28T06:30:16.351Z,65.4
2022-08-28T06:33:34.476Z,64
2022-08-28T06:35:13.199Z,60.6
2022-08-28T06:36:20.432Z,59.2
2022-08-28T06:37:27.677Z,58.2
2022-08-28T06:39:06.417Z,57.8
2022-08-28T06:40:45.147Z,56.6
2022-08-28T06:42:23.883Z,54.8
2022-08-28T06:44:02.622Z,53
2022-08-28T06:45:41.362Z,50.2
2022-08-28T06:47:20.105Z,46.4
2022-08-28T06:48:58.857Z,42.8
2022-08-28T06:50:37.597Z,39.6
2022-08-28T06:52:16.327Z,36
2022-08-28T06:53:56.067Z,34.4
2022-08-28T06:57:11.765Z,32.8
2022-08-28T06:58:18.288Z,30.2
2022-08-28T06:59:24.790Z,29.8
2022-08-28T07:00:31.310Z,29.8
2022-08-28T07:01:37.809Z,30
2022-08-28T07:02:44.325Z,31
2022-08-28T07:03:50.834Z,31.8
2022-08-28T07:04:57.350Z,31.6
2022-08-28T07:06:03.867Z,32.4
2022-08-28T07:07:10.388Z,33
2022-08-28T07:08:16.915Z,33
2022-08-28T07:09:23.447Z,32.8
2022-08-28T07:10:29.956Z,32.4
2022-08-28T07:11:36.474Z,32.2
2022-08-28T07:12:42.988Z,31.4
2022-08-28T07:13:49.508Z,31.4
2022-08-28T07:14:56.028Z,30.2
2022-08-28T07:16:02.541Z,29.2
2022-08-28T07:17:09.060Z,28.4
2022-08-28T07:18:15.583Z,28
2022-08-28T07:19:22.094Z,26.8
2022-08-28T07:20:28.614Z,26.2
2022-08-28T07:21:35.128Z,25.2
2022-08-28T07:22:41.646Z,24.2
2022-08-28T07:23:48.172Z,22.8
2022-08-28T07:24:54.932Z,21.6
2022-08-28T07:26:01.701Z,20
2022-08-28T07:27:08.471Z,19.6
2022-08-28T07:28:15.227Z,18.6
2022-08-28T07:29:21.980Z,18.2
2022-08-28T07:30:28.744Z,17
2022-08-28T07:31:35.495Z,16.2
2022-08-28T07:32:42.274Z,16.6
2022-08-28T07:33:49.042Z,15.8
2022-08-28T07:34:55.782Z,14.8
2022-08-28T07:36:02.547Z,14.2
2022-08-28T07:37:09.325Z,13
2022-08-28T07:38:16.082Z,11.4
2022-08-28T07:40:55.206Z,10.1
2022-08-28T07:42:33.910Z,7.8
2022-08-28T07:44:12.618Z,6.8
2022-08-28T07:45:51.338Z,4.4
2022-08-28T07:46:58.569Z,0
2022-08-28T07:48:05.811Z,-3.7
2022-08-28T07:49:44.509Z,-8.7
2022-08-28T07:51:23.215Z,-22.2
2022-08-28T07:53:01.943Z,-37.3
2022-08-28T07:54:40.629Z,-50
2022-08-28T07:56:19.374Z,-57.9
2022-08-28T07:57:58.125Z,-60.5
2022-08-28T07:59:36.857Z,-65
2022-08-28T08:03:26.593Z,-61.9
2022-08-28T08:04:34.787Z,-60.3
2022-08-28T08:07:52.197Z,-60.7
2022-08-28T08:11:09.607Z,-66
2022-08-28T08:14:27.030Z,-76.9
2022-08-28T08:17:42.603Z,-59.1
2022-08-28T08:18:48.992Z,-66.6
2022-08-28T08:19:55.441Z,-67.2
2022-08-28T08:21:01.839Z,-70
2022-08-28T08:22:08.234Z,-75.5
2022-08-28T08:23:14.644Z,-78.5
2022-08-28T08:24:21.059Z,-83.4
2022-08-28T08:25:27.486Z,-88.1
2022-08-28T08:26:33.892Z,-91.2
2022-08-28T08:27:40.275Z,-94.6
2022-08-28T08:28:46.649Z,-100.3
2022-08-28T08:29:53.080Z,-99.7
2022-08-28T08:30:59.450Z,-96.1
2022-08-28T08:32:05.891Z,-92.9
2022-08-28T08:33:12.291Z,-95.1
2022-08-28T08:34:18.695Z,-98.2
2022-08-28T08:35:25.101Z,-97.9
2022-08-28T08:36:31.493Z,-98.3
2022-08-28T08:37:37.919Z,-102.8
2022-08-28T08:38:44.299Z,-104.6
2022-08-28T08:39:50.681Z,-97.4
2022-08-28T08:40:57.088Z,-90.9
2022-08-28T08:42:03.468Z,-77.3
2022-08-28T08:43:09.904Z,-67.6
2022-08-28T08:44:16.320Z,-65.8
2022-08-28T08:45:22.837Z,-71.6
2022-08-28T08:46:29.385Z,-75.7
2022-08-28T08:47:35.932Z,-82.4
2022-08-28T08:48:42.457Z,-87.7
2022-08-28T08:49:48.995Z,-89.1
2022-08-28T08:50:55.520Z,-91.6
2022-08-28T08:52:02.046Z,-95.3
2022-08-28T08:53:08.568Z,-102
2022-08-28T08:54:15.080Z,-103.8
2022-08-28T08:55:21.599Z,-100.3
2022-08-28T08:56:28.137Z,-96.2
2022-08-28T08:57:34.690Z,-93
2022-08-28T08:58:41.205Z,-96
2022-08-28T09:00:15.064Z,-99.9
2022-08-28T09:01:21.828Z,-101.2
2022-08-28T09:02:28.606Z,-100.8
2022-08-28T09:03:35.365Z,-104
2022-08-28T09:04:42.107Z,-99.3
2022-08-28T09:05:48.891Z,-94.1
2022-08-28T09:06:55.659Z,-90.7
2022-08-28T09:08:02.450Z,-87.1
2022-08-28T09:09:09.216Z,-89.7
2022-08-28T09:10:16.028Z,-93.8
2022-08-28T09:11:22.812Z,-93
2022-08-28T09:12:29.568Z,-87.7
2022-08-28T09:13:36.299Z,-88.1
2022-08-28T09:16:54.488Z,-93.6
2022-08-28T09:18:33.223Z,-108.7
2022-08-28T09:20:11.951Z,-107.9
2022-08-28T09:21:19.196Z,-113.5
2022-08-28T09:22:26.434Z,-117.4
2022-08-28T09:24:05.147Z,-119.4
2022-08-28T09:25:43.893Z,-112.4
2022-08-28T09:27:22.623Z,-106.1
2022-08-28T09:29:01.357Z,-94.6
2022-08-28T09:30:40.082Z,-88.9
2022-08-28T09:32:17.993Z,-86.1
2022-08-28T09:33:24.407Z,-91.2
2022-08-28T09:34:30.858Z,-94.6
2022-08-28T09:35:37.309Z,-95.2
2022-08-28T09:36:43.739Z,-94
2022-08-28T09:37:50.117Z,-93.6
2022-08-28T09:38:56.533Z,-98.6
2022-08-28T09:40:02.970Z,-104.2
2022-08-28T09:41:09.354Z,-110.8
2022-08-28T09:42:15.772Z,-109.1
2022-08-28T09:43:22.168Z,-107.7
2022-08-28T09:44:28.568Z,-102.8
2022-08-28T09:45:34.977Z,-99.9
2022-08-28T09:46:41.369Z,-101
2022-08-28T09:47:47.772Z,-105.7
2022-08-28T09:48:54.173Z,-105.1
2022-08-28T09:50:00.582Z,-109.6
2022-08-28T09:51:06.975Z,-116.9
2022-08-28T09:52:13.384Z,-123.5
2022-08-28T09:53:19.780Z,-124.6
2022-08-28T09:54:26.194Z,-125.4
2022-08-28T09:55:32.591Z,-126
2022-08-28T09:56:39.017Z,-126
2022-08-28T09:57:45.437Z,-124.4
2022-08-28T09:58:51.858Z,-120.7
2022-08-28T09:59:58.388Z,-118.2
2022-08-28T10:01:04.910Z,-121.7
2022-08-28T10:02:11.419Z,-121.3
2022-08-28T10:03:17.948Z,-124
2022-08-28T10:04:24.506Z,-119.6
2022-08-28T10:05:30.965Z,-118
2022-08-28T10:06:37.444Z,-119.8
2022-08-28T10:07:43.975Z,-116.5
2022-08-28T10:08:50.483Z,-115.3
2022-08-28T10:09:56.993Z,-107.9
2022-08-28T10:11:03.572Z,-107.3
2022-08-28T10:12:10.050Z,-104.4
2022-08-28T10:13:16.566Z,-103
2022-08-28T10:14:48.884Z,-97.6
2022-08-28T10:15:55.709Z,-89.3
2022-08-28T10:17:02.464Z,-84.2
2022-08-28T10:18:09.245Z,-82.4
2022-08-28T10:19:15.999Z,-79.6
2022-08-28T10:20:22.732Z,-75.3
2022-08-28T10:21:29.497Z,-68.8
2022-08-28T10:22:36.291Z,-70.8
2022-08-28T10:23:43.077Z,-72.7
2022-08-28T10:24:49.780Z,-73.9
2022-08-28T10:25:56.593Z,-75.5
2022-08-28T10:27:03.385Z,-75.7
2022-08-28T10:28:10.158Z,-76.3
2022-08-28T10:31:28.289Z,-78.1
2022-08-28T10:33:07.009Z,-82.2
2022-08-28T10:34:44.981Z,-84.4
2022-08-28T10:35:51.462Z,-88.9
2022-08-28T10:36:57.940Z,-91.6
2022-08-28T10:38:04.457Z,-93
2022-08-28T10:39:11.027Z,-94.7
2022-08-28T10:40:17.584Z,-93.6
2022-08-28T10:41:24.130Z,-91.8
2022-08-28T10:42:30.652Z,-91.8
2022-08-28T10:43:37.198Z,-97
2022-08-28T10:44:43.710Z,-104.2
2022-08-28T10:45:50.201Z,-113.2
2022-08-28T10:46:56.726Z,-121.7
2022-08-28T10:48:03.287Z,-129.1
2022-08-28T10:49:09.786Z,-131.6
2022-08-28T10:50:16.319Z,-127.3
2022-08-28T10:51:22.873Z,-123.7
2022-08-28T10:52:29.424Z,-125.6
2022-08-28T10:53:35.948Z,-121.9
2022-08-28T10:54:42.500Z,-121.7
2022-08-28T10:55:49.042Z,-118.4
2022-08-28T10:56:55.547Z,-114.7
2022-08-28T10:58:02.095Z,-114.9
2022-08-28T10:59:08.619Z,-116.9
2022-08-28T11:00:15.153Z,-119.6
2022-08-28T11:01:21.699Z,-122.9
2022-08-28T11:02:28.471Z,-127
2022-08-28T11:03:35.256Z,-120.9
2022-08-28T11:04:42.038Z,-115.9
2022-08-28T11:05:48.780Z,-115.5
2022-08-28T11:06:55.554Z,-116.7
2022-08-28T11:08:02.290Z,-121.7
2022-08-28T11:09:09.074Z,-124.2
2022-08-28T11:10:15.843Z,-126.6
2022-08-28T11:11:22.627Z,-130.4
2022-08-28T11:12:29.391Z,-131
2022-08-28T11:13:36.145Z,-131.8
2022-08-28T11:14:42.932Z,-132.2
2022-08-28T11:15:49.715Z,-133.9
2022-08-28T11:19:07.892Z,-134.1
2022-08-28T11:20:46.636Z,-142.8
2022-08-28T11:21:53.877Z,-143.7
2022-08-28T11:23:01.106Z,-146.8
2022-08-28T11:24:39.868Z,-144.7
2022-08-28T11:26:17.716Z,-142.2
2022-08-28T11:27:24.094Z,-130.4
2022-08-28T11:28:30.508Z,-120.4
2022-08-28T11:29:36.915Z,-116.5
2022-08-28T11:30:43.337Z,-108.7
2022-08-28T11:31:49.750Z,-106.1
2022-08-28T11:32:56.122Z,-101.8
2022-08-28T11:34:02.500Z,-106.5
2022-08-28T11:35:08.891Z,-116.9
2022-08-28T11:36:15.281Z,-124.6
2022-08-28T11:37:21.673Z,-126.4
2022-08-28T11:38:28.079Z,-131.6
2022-08-28T11:39:34.451Z,-137.2
2022-08-28T11:40:40.868Z,-144.5
2022-08-28T11:41:47.266Z,-145.5
2022-08-28T11:42:53.654Z,-144.3
2022-08-28T11:44:00.061Z,-142.4
2022-08-28T11:45:06.471Z,-143.7
2022-08-28T11:46:12.908Z,-146.2
2022-08-28T11:47:19.323Z,-148.3
2022-08-28T11:48:25.725Z,-144.9
2022-08-28T11:49:32.135Z,-138.9
2022-08-28T11:50:38.501Z,-132.8
2022-08-28T11:51:44.900Z,-129.3
2022-08-28T11:52:51.318Z,-125.4
2022-08-28T11:53:57.884Z,-119.2
2022-08-28T11:55:04.451Z,-110.8
2022-08-28T11:56:10.975Z,-111.8
2022-08-28T11:57:17.485Z,-119.6
2022-08-28T11:58:23.961Z,-129.1
2022-08-28T11:59:30.462Z,-134.3
2022-08-28T12:00:36.988Z,-139.7
2022-08-28T12:01:43.458Z,-143
2022-08-28T12:02:50.009Z,-143.2
2022-08-28T12:03:56.539Z,-142.6
2022-08-28T12:05:03.091Z,-144.7
2022-08-28T12:06:09.610Z,-147.4
2022-08-28T12:07:16.105Z,-151.6
2022-08-28T12:08:50.055Z,-152.4
2022-08-28T12:09:56.815Z,-151.8
2022-08-28T12:11:03.571Z,-142
2022-08-28T12:12:10.308Z,-138.2
2022-08-28T12:13:17.057Z,-133
2022-08-28T12:14:23.834Z,-125.4
2022-08-28T12:15:30.605Z,-122.1
2022-08-28T12:16:37.326Z,-118
2022-08-28T12:17:44.118Z,-112.8
2022-08-28T12:18:50.875Z,-122.7
2022-08-28T12:19:57.619Z,-115.9
2022-08-28T12:21:04.352Z,-111
2022-08-28T12:22:11.113Z,-103.8
2022-08-28T12:25:29.255Z,-101
2022-08-28T12:27:07.963Z,-121.3
2022-08-28T12:28:46.718Z,-127.9
2022-08-28T12:29:53.917Z,-132.2
2022-08-28T12:31:01.200Z,-135.5
2022-08-28T12:32:39.932Z,-136.2
2022-08-28T12:34:17.802Z,-136
2022-08-28T12:35:24.198Z,-136.6
2022-08-28T12:36:30.567Z,-133.9
2022-08-28T12:37:36.981Z,-137.8
2022-08-28T12:38:43.383Z,-127.5
2022-08-28T12:39:49.830Z,-118.4
2022-08-28T12:40:56.183Z,-105.9
2022-08-28T12:42:02.591Z,-98.3
2022-08-28T12:43:09.018Z,-96.7
2022-08-28T12:44:15.395Z,-93.4
2022-08-28T12:45:21.827Z,-91.8
2022-08-28T12:46:28.251Z,-93.4
2022-08-28T12:47:34.680Z,-106.3
2022-08-28T12:48:41.061Z,-114.9
2022-08-28T12:49:47.482Z,-127.5
2022-08-28T12:50:53.875Z,-133
2022-08-28T12:52:00.308Z,-137.6
2022-08-28T12:53:06.707Z,-141.4
2022-08-28T12:54:13.126Z,-144.3
2022-08-28T12:55:19.556Z,-147.6
2022-08-28T12:56:25.972Z,-151
2022-08-28T12:57:32.358Z,-151
2022-08-28T12:58:38.740Z,-154.3
2022-08-28T12:59:45.165Z,-154.8
2022-08-28T13:00:51.546Z,-158.1
2022-08-28T13:01:58.068Z,-158.8
2022-08-28T13:03:04.623Z,-151.8
2022-08-28T13:04:11.107Z,-141.6
2022-08-28T13:05:17.647Z,-134.5
2022-08-28T13:06:24.164Z,-124.6
2022-08-28T13:07:30.697Z,-116.1
2022-08-28T13:08:37.233Z,-114.1
2022-08-28T13:09:43.770Z,-109.4
2022-08-28T13:10:50.259Z,-106.5
2022-08-28T13:11:56.819Z,-104.2
2022-08-28T13:13:03.303Z,-106.1
2022-08-28T13:14:09.870Z,-105.5
2022-08-28T13:15:16.371Z,-102.4
2022-08-28T13:16:48.986Z,-99
2022-08-28T13:17:55.783Z,-102
2022-08-28T13:19:02.562Z,-110.2
2022-08-28T13:20:09.325Z,-106.5
2022-08-28T13:21:16.086Z,-105
2022-08-28T13:22:22.909Z,-113.7
2022-08-28T13:23:29.670Z,-125.8
2022-08-28T13:24:36.387Z,-133
2022-08-28T13:25:43.206Z,-142.2
2022-08-28T13:26:49.904Z,-147.8
2022-08-28T13:27:56.713Z,-149.9
2022-08-28T13:29:03.466Z,-153.1
2022-08-28T13:30:10.215Z,-155.4
2022-08-28T13:33:28.354Z,-157.5
2022-08-28T13:35:07.081Z,-158.6
2022-08-28T13:36:45.836Z,-160
2022-08-28T13:37:53.094Z,-158.1
2022-08-28T13:39:00.326Z,-157.1
2022-08-28T13:40:39.039Z,-155.4
2022-08-28T13:42:16.926Z,-154.1
2022-08-28T13:43:23.328Z,-155.8
2022-08-28T13:44:29.687Z,-155.2
2022-08-28T13:45:36.097Z,-158.1
2022-08-28T13:46:42.475Z,-161.9
2022-08-28T13:47:48.903Z,-161.5
2022-08-28T13:48:55.304Z,-159.2
2022-08-28T13:50:01.696Z,-156.9
2022-08-28T13:51:08.122Z,-155.4
2022-08-28T13:52:14.531Z,-154.6
2022-08-28T13:53:20.931Z,-151.6
2022-08-28T13:54:27.383Z,-153.3
2022-08-28T13:55:33.799Z,-152.5
2022-08-28T13:56:40.213Z,-154.1
2022-08-28T13:57:46.634Z,-156.4
2022-08-28T13:58:53.015Z,-151.6
2022-08-28T13:59:59.368Z,-150.4
2022-08-28T14:01:05.758Z,-150.6
2022-08-28T14:02:12.158Z,-152.4
2022-08-28T14:03:18.584Z,-152.2
2022-08-28T14:04:25.000Z,-150.1
2022-08-28T14:05:31.403Z,-150.1
2022-08-28T14:06:37.815Z,-151.2
2022-08-28T14:07:44.223Z,-148.5
2022-08-28T14:08:50.617Z,-146.6
2022-08-28T14:09:57.139Z,-146
2022-08-28T14:11:03.643Z,-144.9
2022-08-28T14:12:10.187Z,-143
2022-08-28T14:13:16.701Z,-136.6
2022-08-28T14:14:23.234Z,-127.3
2022-08-28T14:15:29.773Z,-119.4
2022-08-28T14:16:36.278Z,-117.2
2022-08-28T14:17:42.750Z,-111.2
2022-08-28T14:18:49.306Z,-109.6
2022-08-28T14:19:55.803Z,-108.1
2022-08-28T14:21:02.320Z,-105
2022-08-28T14:22:08.875Z,-102.2
2022-08-28T14:23:15.388Z,-99.5
2022-08-28T14:24:48.993Z,-96.5
2022-08-28T14:25:55.757Z,-96.3
2022-08-28T14:27:02.527Z,-97.6
2022-08-28T14:28:09.302Z,-97
2022-08-28T14:29:16.105Z,-95.4
2022-08-28T14:30:22.873Z,-95
2022-08-28T14:31:29.635Z,-95
2022-08-28T14:32:36.437Z,-93.7
2022-08-28T14:33:43.221Z,-93.7
2022-08-28T14:34:49.996Z,-94.5
2022-08-28T14:35:56.782Z,-94.3
2022-08-28T14:37:03.537Z,-101.4
2022-08-28T14:38:10.295Z,-102
2022-08-28T14:41:28.439Z,-101.2
2022-08-28T14:43:07.164Z,-94.4
2022-08-28T14:44:45.916Z,-92.8
2022-08-28T14:45:53.180Z,-92.4
2022-08-28T14:47:00.420Z,-93.8
2022-08-28T14:48:39.172Z,-94.2
2022-08-28T14:50:17.897Z,-95.3
2022-08-28T14:51:56.618Z,-93.1
2022-08-28T14:53:35.361Z,-94.4
2022-08-28T14:55:14.078Z,-91.8
2022-08-28T14:56:52.781Z,-90.3
2022-08-28T14:58:31.477Z,-90.5
2022-08-28T15:00:10.231Z,-90.3
2022-08-28T15:02:21.209Z,-92.9
2022-08-28T15:04:18.249Z,-95.1
2022-08-28T15:07:35.691Z,-100.8
2022-08-28T15:10:51.242Z,-115.3
2022-08-28T15:11:57.626Z,-128.5
2022-08-28T15:13:04.074Z,-121.7
2022-08-28T15:14:10.532Z,-119.6
2022-08-28T15:15:16.907Z,-117.2
2022-08-28T15:16:23.316Z,-114.7
2022-08-28T15:17:29.688Z,-112.6
2022-08-28T15:18:36.086Z,-116.9
2022-08-28T15:19:42.540Z,-112.4
2022-08-28T15:20:48.898Z,-104.4
2022-08-28T15:21:55.338Z,-107.9
2022-08-28T15:23:01.737Z,-112.2
2022-08-28T15:24:08.134Z,-118
2022-08-28T15:25:14.543Z,-125.8
2022-08-28T15:26:20.972Z,-128.1
2022-08-28T15:27:27.378Z,-134.1
2022-08-28T15:28:33.801Z,-139.3
2022-08-28T15:29:40.179Z,-138.6
2022-08-28T15:30:46.560Z,-137
2022-08-28T15:31:52.950Z,-137.4
2022-08-28T15:32:59.364Z,-138
2022-08-28T15:34:05.776Z,-136.8
2022-08-28T15:35:12.201Z,-138
2022-08-28T15:37:24.991Z,-139.1
2022-08-28T15:38:31.517Z,-139.7
2022-08-28T15:39:38.041Z,-142.6
2022-08-28T15:40:44.543Z,-143.4
2022-08-28T15:41:51.070Z,-145.1
2022-08-28T15:42:57.605Z,-146
2022-08-28T15:44:04.135Z,-146.2
2022-08-28T15:45:10.641Z,-146.6
2022-08-28T15:46:17.135Z,-145.5
2022-08-28T15:47:23.621Z,-145.1
2022-08-28T15:48:30.153Z,-143.7
2022-08-28T15:49:36.713Z,-143
2022-08-28T15:50:43.245Z,-143.4
2022-08-28T15:51:49.778Z,-140.1
2022-08-28T15:53:39.042Z,-140.5
2022-08-28T15:54:45.803Z,-141.6
2022-08-28T15:55:52.574Z,-143.9
2022-08-28T15:56:59.320Z,-142.4
2022-08-28T15:58:06.104Z,-139.5
2022-08-28T15:59:12.871Z,-139.7
2022-08-28T16:00:19.648Z,-138.9
2022-08-28T16:01:26.372Z,-135.9
2022-08-28T16:02:33.135Z,-135.3
2022-08-28T16:03:39.883Z,-135.9
2022-08-28T16:04:46.684Z,-134.9
2022-08-28T16:05:53.411Z,-135.1
2022-08-28T16:07:00.196Z,-135.9
2022-08-28T16:10:18.363Z,-128.5
2022-08-28T16:11:57.070Z,-122.7
2022-08-28T16:13:04.336Z,-119.6
2022-08-28T16:14:11.581Z,-119.4
2022-08-28T16:15:50.318Z,-123.3
2022-08-28T16:17:29.076Z,-120.4
2022-08-28T16:19:06.927Z,-118
2022-08-28T16:20:13.344Z,-113.5
2022-08-28T16:21:19.811Z,-112.8
2022-08-28T16:22:26.218Z,-108.7
2022-08-28T16:23:32.623Z,-110.4
2022-08-28T16:24:39.029Z,-111.6
2022-08-28T16:25:45.485Z,-107.5
2022-08-28T16:26:51.882Z,-104.6
2022-08-28T16:27:58.306Z,-100.3
2022-08-28T16:29:04.710Z,-94.5
2022-08-28T16:30:11.159Z,-90.3